sensor_id;sensor_type;location;lat;lon;timestamp;pressure;altitude;pressure_sealevel;temperature;humidity
38227;BME280;24026;49.446;8.576;2023-04-06T00:01:02;100809.84;;;14.20;29.41
38227;BME280;24026;49.446;8.576;2023-04-06T00:03:23;100808.47;;;14.18;29.39
38227;BME280;24026;49.446;8.576;2023-04-06T00:05:44;100802.63;;;14.21;29.39
38227;BME280;24026;49.446;8.576;2023-04-06T00:08:04;100804.75;;;14.19;29.38
38227;BME280;24026;49.446;8.576;2023-04-06T00:10:25;100796.97;;;14.17;29.42
38227;BME280;24026;49.446;8.576;2023-04-06T00:12:46;100795.34;;;14.16;29.51
38227;BME280;24026;49.446;8.576;2023-04-06T00:15:08;100796.44;;;14.15;29.44
38227;BME280;24026;49.446;8.576;2023-04-06T00:17:30;100797.50;;;14.14;29.32
38227;BME280;24026;49.446;8.576;2023-04-06T00:19:51;100797.22;;;14.16;29.33
38227;BME280;24026;49.446;8.576;2023-04-06T00:22:12;100798.53;;;14.13;29.41
38227;BME280;24026;49.446;8.576;2023-04-06T00:24:33;100796.66;;;14.08;29.46
38227;BME280;24026;49.446;8.576;2023-04-06T00:26:54;100801.75;;;14.10;29.50
38227;BME280;24026;49.446;8.576;2023-04-06T00:29:15;100799.88;;;14.11;29.50
38227;BME280;24026;49.446;8.576;2023-04-06T00:31:36;100798.50;;;14.08;29.70
38227;BME280;24026;49.446;8.576;2023-04-06T00:33:58;100799.81;;;14.05;29.65
38227;BME280;24026;49.446;8.576;2023-04-06T00:36:18;100800.63;;;14.06;29.63
38227;BME280;24026;49.446;8.576;2023-04-06T00:38:39;100800.88;;;14.04;29.64
38227;BME280;24026;49.446;8.576;2023-04-06T00:41:00;100792.06;;;14.04;29.57
38227;BME280;24026;49.446;8.576;2023-04-06T00:43:22;100794.97;;;14.02;29.70
38227;BME280;24026;49.446;8.576;2023-04-06T00:45:44;100788.00;;;14.01;29.67
38227;BME280;24026;49.446;8.576;2023-04-06T00:48:06;100789.09;;;14.00;29.77
38227;BME280;24026;49.446;8.576;2023-04-06T00:50:27;100784.00;;;13.99;29.69
38227;BME280;24026;49.446;8.576;2023-04-06T00:52:48;100782.13;;;13.99;29.74
38227;BME280;24026;49.446;8.576;2023-04-06T00:55:09;100782.13;;;13.99;29.82
38227;BME280;24026;49.446;8.576;2023-04-06T00:57:31;100772.78;;;13.97;29.88
38227;BME280;24026;49.446;8.576;2023-04-06T00:59:53;100774.38;;;13.98;29.79
38227;BME280;24026;49.446;8.576;2023-04-06T01:02:14;100779.41;;;13.94;29.71
38227;BME280;24026;49.446;8.576;2023-04-06T01:04:35;100770.59;;;13.94;29.68
38227;BME280;24026;49.446;8.576;2023-04-06T01:06:57;100771.09;;;13.90;29.77
38227;BME280;24026;49.446;8.576;2023-04-06T01:09:18;100764.44;;;13.93;29.80
38227;BME280;24026;49.446;8.576;2023-04-06T01:11:38;100765.50;;;13.92;29.80
38227;BME280;24026;49.446;8.576;2023-04-06T01:13:59;100765.75;;;13.90;29.82
38227;BME280;24026;49.446;8.576;2023-04-06T01:16:20;100763.84;;;13.86;30.00
38227;BME280;24026;49.446;8.576;2023-04-06T01:18:41;100770.81;;;13.87;29.67
38227;BME280;24026;49.446;8.576;2023-04-06T01:21:03;100764.38;;;13.88;29.97
38227;BME280;24026;49.446;8.576;2023-04-06T01:23:25;100758.25;;;13.87;29.86
38227;BME280;24026;49.446;8.576;2023-04-06T01:25:46;100760.91;;;13.87;29.89
38227;BME280;24026;49.446;8.576;2023-04-06T01:28:07;100763.03;;;13.85;29.91
38227;BME280;24026;49.446;8.576;2023-04-06T01:30:28;100762.50;;;13.83;29.96
38227;BME280;24026;49.446;8.576;2023-04-06T01:32:49;100762.75;;;13.82;30.01
38227;BME280;24026;49.446;8.576;2023-04-06T01:35:10;100750.44;;;13.81;29.94
38227;BME280;24026;49.446;8.576;2023-04-06T01:37:31;100753.91;;;13.81;30.04
38227;BME280;24026;49.446;8.576;2023-04-06T01:39:52;100737.34;;;13.79;29.95
38227;BME280;24026;49.446;8.576;2023-04-06T01:42:13;100745.59;;;13.78;29.97
38227;BME280;24026;49.446;8.576;2023-04-06T01:44:34;100747.22;;;13.79;29.88
38227;BME280;24026;49.446;8.576;2023-04-06T01:46:55;100749.09;;;13.78;30.07
38227;BME280;24026;49.446;8.576;2023-04-06T01:49:16;100747.19;;;13.74;29.95
38227;BME280;24026;49.446;8.576;2023-04-06T01:51:37;100744.75;;;13.72;29.96
38227;BME280;24026;49.446;8.576;2023-04-06T01:53:58;100746.88;;;13.70;30.06
38227;BME280;24026;49.446;8.576;2023-04-06T01:56:18;100745.81;;;13.71;30.04
38227;BME280;24026;49.446;8.576;2023-04-06T01:58:38;100738.34;;;13.73;30.08
38227;BME280;24026;49.446;8.576;2023-04-06T02:00:59;100742.88;;;13.73;29.96
38227;BME280;24026;49.446;8.576;2023-04-06T02:03:20;100739.66;;;13.70;30.20
38227;BME280;24026;49.446;8.576;2023-04-06T02:05:40;100733.78;;;13.68;30.17
38227;BME280;24026;49.446;8.576;2023-04-06T02:08:01;100737.75;;;13.66;30.19
38227;BME280;24026;49.446;8.576;2023-04-06T02:10:22;100738.25;;;13.63;30.06
38227;BME280;24026;49.446;8.576;2023-04-06T02:12:44;100743.59;;;13.63;30.13
38227;BME280;24026;49.446;8.576;2023-04-06T02:15:04;100735.84;;;13.61;30.14
38227;BME280;24026;49.446;8.576;2023-04-06T02:17:25;100740.38;;;13.61;30.30
38227;BME280;24026;49.446;8.576;2023-04-06T02:19:45;100730.19;;;13.58;30.30
38227;BME280;24026;49.446;8.576;2023-04-06T02:22:06;100733.94;;;13.57;30.13
38227;BME280;24026;49.446;8.576;2023-04-06T02:24:27;100730.19;;;13.58;30.22
38227;BME280;24026;49.446;8.576;2023-04-06T02:26:47;100729.41;;;13.57;30.18
38227;BME280;24026;49.446;8.576;2023-04-06T02:29:08;100729.91;;;13.54;30.38
38227;BME280;24026;49.446;8.576;2023-04-06T02:31:29;100730.66;;;13.49;30.21
38227;BME280;24026;49.446;8.576;2023-04-06T02:33:50;100735.75;;;13.51;30.43
38227;BME280;24026;49.446;8.576;2023-04-06T02:36:11;100731.47;;;13.50;30.43
38227;BME280;24026;49.446;8.576;2023-04-06T02:38:31;100734.16;;;13.50;30.29
38227;BME280;24026;49.446;8.576;2023-04-06T02:40:52;100728.22;;;13.48;30.49
38227;BME280;24026;49.446;8.576;2023-04-06T02:43:12;100727.69;;;13.46;30.16
38227;BME280;24026;49.446;8.576;2023-04-06T02:45:33;100727.69;;;13.46;30.52
38227;BME280;24026;49.446;8.576;2023-04-06T02:47:53;100730.91;;;13.48;30.23
38227;BME280;24026;49.446;8.576;2023-04-06T02:50:14;100725.25;;;13.44;30.45
38227;BME280;24026;49.446;8.576;2023-04-06T02:52:35;100720.19;;;13.43;30.31
38227;BME280;24026;49.446;8.576;2023-04-06T02:54:56;100724.47;;;13.44;30.26
38227;BME280;24026;49.446;8.576;2023-04-06T02:57:17;100727.63;;;13.41;30.32
38227;BME280;24026;49.446;8.576;2023-04-06T02:59:38;100724.97;;;13.41;30.46
38227;BME280;24026;49.446;8.576;2023-04-06T03:01:58;100724.66;;;13.37;30.49
38227;BME280;24026;49.446;8.576;2023-04-06T03:04:18;100722.00;;;13.37;30.59
38227;BME280;24026;49.446;8.576;2023-04-06T03:06:39;100728.13;;;13.38;30.32
38227;BME280;24026;49.446;8.576;2023-04-06T03:09:00;100725.16;;;13.34;30.43
38227;BME280;24026;49.446;8.576;2023-04-06T03:11:20;100732.13;;;13.35;30.42
38227;BME280;24026;49.446;8.576;2023-04-06T03:13:40;100725.97;;;13.34;30.38
38227;BME280;24026;49.446;8.576;2023-04-06T03:16:01;100721.94;;;13.32;30.63
38227;BME280;24026;49.446;8.576;2023-04-06T03:18:23;100720.28;;;13.31;30.64
38227;BME280;24026;49.446;8.576;2023-04-06T03:20:43;100722.75;;;13.32;30.66
38227;BME280;24026;49.446;8.576;2023-04-06T03:23:05;100722.41;;;13.29;30.45
38227;BME280;24026;49.446;8.576;2023-04-06T03:25:26;100722.91;;;13.26;30.63
38227;BME280;24026;49.446;8.576;2023-04-06T03:27:46;100732.28;;;13.28;30.50
38227;BME280;24026;49.446;8.576;2023-04-06T03:30:07;100732.53;;;13.27;30.81
38227;BME280;24026;49.446;8.576;2023-04-06T03:32:27;100730.13;;;13.25;30.60
38227;BME280;24026;49.446;8.576;2023-04-06T03:34:48;100734.13;;;13.28;30.53
38227;BME280;24026;49.446;8.576;2023-04-06T03:37:08;100733.59;;;13.26;30.63
38227;BME280;24026;49.446;8.576;2023-04-06T03:39:29;100733.84;;;13.24;30.61
38227;BME280;24026;49.446;8.576;2023-04-06T03:41:49;100731.16;;;13.24;30.70
38227;BME280;24026;49.446;8.576;2023-04-06T03:44:10;100737.06;;;13.26;30.45
38227;BME280;24026;49.446;8.576;2023-04-06T03:46:30;100738.63;;;13.22;30.81
38227;BME280;24026;49.446;8.576;2023-04-06T03:48:51;100733.84;;;13.24;30.71
38227;BME280;24026;49.446;8.576;2023-04-06T03:51:11;100733.53;;;13.21;30.66
38227;BME280;24026;49.446;8.576;2023-04-06T03:53:32;100735.41;;;13.20;30.79
38227;BME280;24026;49.446;8.576;2023-04-06T03:55:52;100740.75;;;13.20;30.71
38227;BME280;24026;49.446;8.576;2023-04-06T03:58:13;100740.44;;;13.16;30.80
38227;BME280;24026;49.446;8.576;2023-04-06T04:00:33;100754.84;;;13.15;30.73
38227;BME280;24026;49.446;8.576;2023-04-06T04:02:53;100754.84;;;13.15;30.85
38227;BME280;24026;49.446;8.576;2023-04-06T04:05:14;100749.25;;;13.17;30.73
38227;BME280;24026;49.446;8.576;2023-04-06T04:07:36;100750.28;;;13.16;30.77
38227;BME280;24026;49.446;8.576;2023-04-06T04:09:57;100755.31;;;13.12;30.88
38227;BME280;24026;49.446;8.576;2023-04-06T04:12:17;100756.94;;;13.13;31.00
38227;BME280;24026;49.446;8.576;2023-04-06T04:14:37;100763.34;;;13.12;30.96
38227;BME280;24026;49.446;8.576;2023-04-06T04:16:58;100764.97;;;13.13;30.78
38227;BME280;24026;49.446;8.576;2023-04-06T04:19:18;100771.59;;;13.11;30.84
38227;BME280;24026;49.446;8.576;2023-04-06T04:21:43;100765.16;;;13.07;30.97
38227;BME280;24026;49.446;8.576;2023-04-06T04:24:06;100764.31;;;13.06;30.96
38227;BME280;24026;49.446;8.576;2023-04-06T04:26:27;100767.81;;;13.07;30.91
38227;BME280;24026;49.446;8.576;2023-04-06T04:28:47;100761.41;;;13.08;30.85
38227;BME280;24026;49.446;8.576;2023-04-06T04:31:08;100762.47;;;13.07;30.97
38227;BME280;24026;49.446;8.576;2023-04-06T04:33:28;100769.34;;;13.03;30.89
38227;BME280;24026;49.446;8.576;2023-04-06T04:35:49;100761.34;;;13.03;30.97
38227;BME280;24026;49.446;8.576;2023-04-06T04:38:09;100766.94;;;13.01;31.08
38227;BME280;24026;49.446;8.576;2023-04-06T04:40:30;100767.19;;;13.00;31.11
38227;BME280;24026;49.446;8.576;2023-04-06T04:42:50;100768.56;;;13.02;30.96
38227;BME280;24026;49.446;8.576;2023-04-06T04:45:11;100766.13;;;13.01;31.11
38227;BME280;24026;49.446;8.576;2023-04-06T04:47:31;100769.59;;;13.01;31.11
38227;BME280;24026;49.446;8.576;2023-04-06T04:49:52;100772.84;;;13.03;31.05
38227;BME280;24026;49.446;8.576;2023-04-06T04:52:12;100772.84;;;13.03;31.22
38227;BME280;24026;49.446;8.576;2023-04-06T04:54:33;100772.25;;;13.01;31.21
38227;BME280;24026;49.446;8.576;2023-04-06T04:56:53;100775.75;;;13.02;30.99
38227;BME280;24026;49.446;8.576;2023-04-06T04:59:14;100784.69;;;13.12;30.91
38227;BME280;24026;49.446;8.576;2023-04-06T05:01:34;100784.84;;;13.28;30.89
38227;BME280;24026;49.446;8.576;2023-04-06T05:03:55;100781.09;;;13.46;30.75
38227;BME280;24026;49.446;8.576;2023-04-06T05:06:15;100782.88;;;13.62;30.20
38227;BME280;24026;49.446;8.576;2023-04-06T05:08:36;100778.22;;;13.80;29.93
38227;BME280;24026;49.446;8.576;2023-04-06T05:10:57;100788.56;;;13.98;29.77
38227;BME280;24026;49.446;8.576;2023-04-06T05:13:18;100776.38;;;14.18;29.50
38227;BME280;24026;49.446;8.576;2023-04-06T05:15:38;100776.25;;;14.35;29.35
38227;BME280;24026;49.446;8.576;2023-04-06T05:18:00;100783.78;;;14.43;29.45
38227;BME280;24026;49.446;8.576;2023-04-06T05:20:21;100777.94;;;14.46;29.36
38227;BME280;24026;49.446;8.576;2023-04-06T05:22:41;100781.53;;;14.62;29.04
38227;BME280;24026;49.446;8.576;2023-04-06T05:25:02;100782.94;;;14.75;28.90
38227;BME280;24026;49.446;8.576;2023-04-06T05:27:23;100789.97;;;14.86;28.83
38227;BME280;24026;49.446;8.576;2023-04-06T05:29:43;100785.72;;;14.95;28.74
38227;BME280;24026;49.446;8.576;2023-04-06T05:32:04;100791.13;;;15.06;28.60
38227;BME280;24026;49.446;8.576;2023-04-06T05:34:28;100790.38;;;15.21;28.29
38227;BME280;24026;49.446;8.576;2023-04-06T05:36:49;100787.47;;;15.27;28.22
38227;BME280;24026;49.446;8.576;2023-04-06T05:39:10;100794.16;;;15.40;28.10
38227;BME280;24026;49.446;8.576;2023-04-06T05:41:32;100789.41;;;15.52;27.95
38227;BME280;24026;49.446;8.576;2023-04-06T05:43:52;100783.78;;;15.59;27.89
38227;BME280;24026;49.446;8.576;2023-04-06T05:46:13;100790.22;;;15.68;27.97
38227;BME280;24026;49.446;8.576;2023-04-06T05:48:33;100781.41;;;15.78;28.01
38227;BME280;24026;49.446;8.576;2023-04-06T05:50:54;100786.53;;;15.90;27.87
38227;BME280;24026;49.446;8.576;2023-04-06T05:53:14;100784.66;;;15.96;27.65
38227;BME280;24026;49.446;8.576;2023-04-06T05:55:36;100792.44;;;16.02;27.53
38227;BME280;24026;49.446;8.576;2023-04-06T05:57:56;100783.31;;;15.98;27.60
38227;BME280;24026;49.446;8.576;2023-04-06T06:00:17;100786.00;;;15.98;27.71
38227;BME280;24026;49.446;8.576;2023-04-06T06:02:37;100790.81;;;15.86;27.63
38227;BME280;24026;49.446;8.576;2023-04-06T06:04:59;100793.25;;;15.87;27.73
38227;BME280;24026;49.446;8.576;2023-04-06T06:07:20;100790.81;;;15.86;27.68
38227;BME280;24026;49.446;8.576;2023-04-06T06:09:40;100798.84;;;15.86;27.87
38227;BME280;24026;49.446;8.576;2023-04-06T06:12:01;100802.06;;;15.83;28.19
38227;BME280;24026;49.446;8.576;2023-04-06T06:14:21;100799.13;;;15.79;28.17
38227;BME280;24026;49.446;8.576;2023-04-06T06:16:42;100805.00;;;15.81;28.09
38227;BME280;24026;49.446;8.576;2023-04-06T06:19:02;100800.72;;;15.80;28.14
38227;BME280;24026;49.446;8.576;2023-04-06T06:21:24;100800.94;;;15.73;28.22
38227;BME280;24026;49.446;8.576;2023-04-06T06:23:45;100805.22;;;15.69;28.38
38227;BME280;24026;49.446;8.576;2023-04-06T06:26:07;100796.09;;;15.60;28.60
38227;BME280;24026;49.446;8.576;2023-04-06T06:28:27;100804.13;;;15.55;28.68
38227;BME280;24026;49.446;8.576;2023-04-06T06:30:48;100790.47;;;15.62;28.59
38227;BME280;24026;49.446;8.576;2023-04-06T06:33:08;100791.84;;;15.69;28.46
38227;BME280;24026;49.446;8.576;2023-04-06T06:35:29;100793.22;;;15.77;28.44
38227;BME280;24026;49.446;8.576;2023-04-06T06:37:49;100797.50;;;15.88;28.32
38227;BME280;24026;49.446;8.576;2023-04-06T06:40:10;100793.75;;;16.00;28.13
38227;BME280;24026;49.446;8.576;2023-04-06T06:42:33;100791.34;;;16.14;28.18
38227;BME280;24026;49.446;8.576;2023-04-06T06:44:54;100801.00;;;16.25;28.18
38227;BME280;24026;49.446;8.576;2023-04-06T06:47:17;100794.56;;;16.41;28.08
38227;BME280;24026;49.446;8.576;2023-04-06T06:49:37;100795.34;;;16.57;27.92
38227;BME280;24026;49.446;8.576;2023-04-06T06:51:58;100796.63;;;16.70;27.85
38227;BME280;24026;49.446;8.576;2023-04-06T06:54:18;100793.38;;;16.83;27.70
38227;BME280;24026;49.446;8.576;2023-04-06T06:56:38;100799.84;;;16.93;27.68
38227;BME280;24026;49.446;8.576;2023-04-06T06:58:59;100790.66;;;16.99;27.70
38227;BME280;24026;49.446;8.576;2023-04-06T07:01:19;100797.38;;;17.01;27.54
38227;BME280;24026;49.446;8.576;2023-04-06T07:03:40;100793.88;;;17.06;27.52
38227;BME280;24026;49.446;8.576;2023-04-06T07:06:00;100793.34;;;16.99;27.67
38227;BME280;24026;49.446;8.576;2023-04-06T07:08:22;100796.31;;;16.92;27.81
38227;BME280;24026;49.446;8.576;2023-04-06T07:10:43;100799.84;;;16.77;27.84
38227;BME280;24026;49.446;8.576;2023-04-06T07:13:03;100792.88;;;16.71;28.09
38227;BME280;24026;49.446;8.576;2023-04-06T07:15:24;100789.69;;;16.59;28.06
38227;BME280;24026;49.446;8.576;2023-04-06T07:17:44;100795.34;;;16.57;27.92
38227;BME280;24026;49.446;8.576;2023-04-06T07:20:05;100792.94;;;16.51;28.24
38227;BME280;24026;49.446;8.576;2023-04-06T07:22:26;100798.84;;;16.42;28.30
38227;BME280;24026;49.446;8.576;2023-04-06T07:24:46;100798.03;;;16.47;28.12
38227;BME280;24026;49.446;8.576;2023-04-06T07:27:07;100803.94;;;16.39;28.47
38227;BME280;24026;49.446;8.576;2023-04-06T07:29:27;100797.50;;;16.35;28.51
38227;BME280;24026;49.446;8.576;2023-04-06T07:31:48;100803.16;;;16.33;28.58
38227;BME280;24026;49.446;8.576;2023-04-06T07:34:09;100804.22;;;16.27;28.49
38227;BME280;24026;49.446;8.576;2023-04-06T07:36:29;100802.34;;;16.22;28.64
38227;BME280;24026;49.446;8.576;2023-04-06T07:38:50;100806.91;;;16.22;28.48
38227;BME280;24026;49.446;8.576;2023-04-06T07:41:10;100805.03;;;16.27;28.48
38227;BME280;24026;49.446;8.576;2023-04-06T07:43:31;100801.53;;;16.27;28.47
38227;BME280;24026;49.446;8.576;2023-04-06T07:45:51;100805.84;;;16.28;28.54
38227;BME280;24026;49.446;8.576;2023-04-06T07:48:12;100805.84;;;16.23;28.75
38227;BME280;24026;49.446;8.576;2023-04-06T07:50:32;100805.84;;;16.18;28.77
38227;BME280;24026;49.446;8.576;2023-04-06T07:52:53;100811.72;;;16.25;28.57
38227;BME280;24026;49.446;8.576;2023-04-06T07:55:13;100809.06;;;16.20;28.78
38227;BME280;24026;49.446;8.576;2023-04-06T07:57:34;100812.25;;;16.22;28.69
38227;BME280;24026;49.446;8.576;2023-04-06T07:59:55;100807.47;;;16.24;28.68
38227;BME280;24026;49.446;8.576;2023-04-06T08:02:16;100809.84;;;16.25;28.85
38227;BME280;24026;49.446;8.576;2023-04-06T08:04:36;100813.34;;;16.31;28.60
38227;BME280;24026;49.446;8.576;2023-04-06T08:06:56;100814.66;;;16.34;28.57
38227;BME280;24026;49.446;8.576;2023-04-06T08:09:17;100811.72;;;16.40;28.38
38227;BME280;24026;49.446;8.576;2023-04-06T08:11:37;100806.91;;;16.37;28.80
38227;BME280;24026;49.446;8.576;2023-04-06T08:13:58;100808.50;;;16.43;28.41
38227;BME280;24026;49.446;8.576;2023-04-06T08:16:18;100801.53;;;16.47;28.40
38227;BME280;24026;49.446;8.576;2023-04-06T08:18:39;100807.16;;;16.46;28.44
38227;BME280;24026;49.446;8.576;2023-04-06T08:21:00;100810.91;;;16.50;28.36
38227;BME280;24026;49.446;8.576;2023-04-06T08:23:20;100812.25;;;16.47;28.44
38227;BME280;24026;49.446;8.576;2023-04-06T08:25:42;100812.50;;;16.51;28.20
38227;BME280;24026;49.446;8.576;2023-04-06T08:28:03;100809.56;;;16.53;28.29
38227;BME280;24026;49.446;8.576;2023-04-06T08:30:24;100811.16;;;16.48;28.40
38227;BME280;24026;49.446;8.576;2023-04-06T08:32:45;100810.63;;;16.52;28.48
38227;BME280;24026;49.446;8.576;2023-04-06T08:35:06;100809.31;;;16.49;28.36
38227;BME280;24026;49.446;8.576;2023-04-06T08:37:27;100803.09;;;16.54;28.39
38227;BME280;24026;49.446;8.576;2023-04-06T08:39:48;100805.78;;;16.54;28.33
38227;BME280;24026;49.446;8.576;2023-04-06T08:42:19;100807.69;;;16.53;28.49
38227;BME280;24026;49.446;8.576;2023-04-06T08:44:41;100804.19;;;16.58;28.32
38227;BME280;24026;49.446;8.576;2023-04-06T08:47:04;100804.72;;;16.60;28.27
38227;BME280;24026;49.446;8.576;2023-04-06T08:49:26;100806.59;;;16.59;28.52
38227;BME280;24026;49.446;8.576;2023-04-06T08:51:47;100806.06;;;16.57;28.45
38227;BME280;24026;49.446;8.576;2023-04-06T08:54:07;100804.19;;;16.58;28.60
38227;BME280;24026;49.446;8.576;2023-04-06T08:56:28;100802.56;;;16.62;28.58
38227;BME280;24026;49.446;8.576;2023-04-06T08:58:50;100796.38;;;16.66;28.32
38227;BME280;24026;49.446;8.576;2023-04-06T09:01:13;100798.78;;;16.68;28.23
38227;BME280;24026;49.446;8.576;2023-04-06T09:03:39;100791.28;;;16.70;28.32
38227;BME280;24026;49.446;8.576;2023-04-06T09:06:00;100785.09;;;16.70;28.51
38227;BME280;24026;49.446;8.576;2023-04-06T09:08:21;100796.88;;;16.74;28.23
38227;BME280;24026;49.446;8.576;2023-04-06T09:10:41;100801.72;;;16.72;28.40
38227;BME280;24026;49.446;8.576;2023-04-06T09:13:04;100790.47;;;16.75;28.41
38227;BME280;24026;49.446;8.576;2023-04-06T09:15:24;100790.97;;;16.77;28.36
38227;BME280;24026;49.446;8.576;2023-04-06T09:17:45;100799.84;;;16.82;28.22
38227;BME280;24026;49.446;8.576;2023-04-06T09:20:06;100798.22;;;16.81;28.26
38227;BME280;24026;49.446;8.576;2023-04-06T09:22:36;100793.38;;;16.83;28.39
38227;BME280;24026;49.446;8.576;2023-04-06T09:24:56;100785.88;;;16.85;28.28
38227;BME280;24026;49.446;8.576;2023-04-06T09:27:17;100779.72;;;16.85;28.24
38227;BME280;24026;49.446;8.576;2023-04-06T09:29:38;100786.44;;;16.88;28.35
38227;BME280;24026;49.446;8.576;2023-04-06T09:32:06;100783.47;;;16.89;28.29
38227;BME280;24026;49.446;8.576;2023-04-06T09:34:27;100774.56;;;16.94;28.36
38227;BME280;24026;49.446;8.576;2023-04-06T09:36:47;100783.97;;;16.96;28.45
38227;BME280;24026;49.446;8.576;2023-04-06T09:39:08;100780.22;;;16.92;28.36
38227;BME280;24026;49.446;8.576;2023-04-06T09:41:36;100784.78;;;16.97;28.35
38227;BME280;24026;49.446;8.576;2023-04-06T09:44:04;100782.09;;;16.97;28.25
38227;BME280;24026;49.446;8.576;2023-04-06T09:46:25;100781.53;;;17.00;27.98
38227;BME280;24026;49.446;8.576;2023-04-06T09:48:45;100778.34;;;16.98;28.64
38227;BME280;24026;49.446;8.576;2023-04-06T09:51:06;100780.47;;;17.01;28.27
38227;BME280;24026;49.446;8.576;2023-04-06T09:53:29;100779.94;;;17.04;28.34
38227;BME280;24026;49.446;8.576;2023-04-06T09:55:54;100774.25;;;17.06;28.19
38227;BME280;24026;49.446;8.576;2023-04-06T09:58:19;100777.78;;;17.06;28.19
38227;BME280;24026;49.446;8.576;2023-04-06T10:01:01;100772.41;;;17.06;28.21
38227;BME280;24026;49.446;8.576;2023-04-06T10:03:31;100772.66;;;17.04;28.40
38227;BME280;24026;49.446;8.576;2023-04-06T10:06:00;100771.84;;;17.09;28.26
38227;BME280;24026;49.446;8.576;2023-04-06T10:08:26;100772.63;;;17.15;28.26
38227;BME280;24026;49.446;8.576;2023-04-06T10:10:48;100767.22;;;17.20;27.98
38227;BME280;24026;49.446;8.576;2023-04-06T10:13:11;100764.50;;;17.25;27.95
38227;BME280;24026;49.446;8.576;2023-04-06T10:15:33;100767.97;;;17.26;27.63
38227;BME280;24026;49.446;8.576;2023-04-06T10:17:53;100767.44;;;17.29;28.02
38227;BME280;24026;49.446;8.576;2023-04-06T10:20:20;100759.34;;;17.34;27.78
38227;BME280;24026;49.446;8.576;2023-04-06T10:22:59;100766.06;;;17.36;28.04
38227;BME280;24026;49.446;8.576;2023-04-06T10:25:29;100763.88;;;17.38;27.77
38227;BME280;24026;49.446;8.576;2023-04-06T10:28:01;100760.13;;;17.39;27.80
38227;BME280;24026;49.446;8.576;2023-04-06T10:30:25;100754.75;;;17.39;27.72
38227;BME280;24026;49.446;8.576;2023-04-06T10:32:46;100759.00;;;17.46;27.84
38227;BME280;24026;49.446;8.576;2023-04-06T10:35:11;100769.47;;;17.47;27.55
38227;BME280;24026;49.446;8.576;2023-04-06T10:37:52;100760.63;;;17.47;27.71
38227;BME280;24026;49.446;8.576;2023-04-06T10:40:24;100759.00;;;17.51;27.67
38227;BME280;24026;49.446;8.576;2023-04-06T10:42:45;100765.16;;;17.51;27.37
38227;BME280;24026;49.446;8.576;2023-04-06T10:45:07;100767.81;;;17.56;27.37
38227;BME280;24026;49.446;8.576;2023-04-06T10:47:39;100756.81;;;17.53;27.55
38227;BME280;24026;49.446;8.576;2023-04-06T10:50:00;100756.78;;;17.58;27.45
38227;BME280;24026;49.446;8.576;2023-04-06T10:52:20;100751.13;;;17.59;27.40
38227;BME280;24026;49.446;8.576;2023-04-06T10:54:42;100746.00;;;17.63;27.33
38227;BME280;24026;49.446;8.576;2023-04-06T10:57:05;100758.94;;;17.61;27.16
38227;BME280;24026;49.446;8.576;2023-04-06T10:59:28;100750.59;;;17.63;27.23
38227;BME280;24026;49.446;8.576;2023-04-06T11:01:49;100745.44;;;17.66;27.26
38227;BME280;24026;49.446;8.576;2023-04-06T11:04:10;100743.56;;;17.67;26.72
38227;BME280;24026;49.446;8.576;2023-04-06T11:06:33;100748.66;;;17.68;26.97
38227;BME280;24026;49.446;8.576;2023-04-06T11:08:55;100743.50;;;17.72;27.08
38227;BME280;24026;49.446;8.576;2023-04-06T11:11:17;100735.69;;;17.75;27.15
38227;BME280;24026;49.446;8.576;2023-04-06T11:15:58;100728.91;;;17.83;26.88
38227;BME280;24026;49.446;8.576;2023-04-06T11:18:19;100727.53;;;17.86;26.77
38227;BME280;24026;49.446;8.576;2023-04-06T11:20:40;100733.72;;;17.86;26.79
38227;BME280;24026;49.446;8.576;2023-04-06T11:23:00;100730.00;;;17.82;26.96
38227;BME280;24026;49.446;8.576;2023-04-06T11:25:22;100731.03;;;17.91;26.81
38227;BME280;24026;49.446;8.576;2023-04-06T11:27:42;100731.53;;;17.93;26.86
38227;BME280;24026;49.446;8.576;2023-04-06T11:30:03;100721.03;;;17.97;26.70
38227;BME280;24026;49.446;8.576;2023-04-06T11:32:24;100709.16;;;18.03;26.75
38227;BME280;24026;49.446;8.576;2023-04-06T11:34:46;100723.38;;;18.04;26.82
38227;BME280;24026;49.446;8.576;2023-04-06T11:37:09;100720.97;;;18.02;26.80
38227;BME280;24026;49.446;8.576;2023-04-06T11:39:30;100707.25;;;18.04;26.68
38227;BME280;24026;49.446;8.576;2023-04-06T11:41:51;100709.16;;;18.03;26.69
38227;BME280;24026;49.446;8.576;2023-04-06T11:44:12;100701.88;;;18.04;26.84
38227;BME280;24026;49.446;8.576;2023-04-06T11:46:32;100697.25;;;18.09;26.49
38227;BME280;24026;49.446;8.576;2023-04-06T11:48:58;100698.56;;;18.12;26.62
38227;BME280;24026;49.446;8.576;2023-04-06T11:51:22;100690.22;;;18.13;26.38
38227;BME280;24026;49.446;8.576;2023-04-06T11:53:46;100683.47;;;18.16;26.33
38227;BME280;24026;49.446;8.576;2023-04-06T11:56:07;100684.84;;;18.13;26.37
38227;BME280;24026;49.446;8.576;2023-04-06T11:58:27;100689.13;;;18.14;26.60
38227;BME280;24026;49.446;8.576;2023-04-06T12:00:47;100676.19;;;18.17;26.26
38227;BME280;24026;49.446;8.576;2023-04-06T12:03:09;100676.75;;;18.13;26.34
38227;BME280;24026;49.446;8.576;2023-04-06T12:05:29;100684.31;;;18.11;26.40
38227;BME280;24026;49.446;8.576;2023-04-06T12:07:50;100671.66;;;18.12;26.45
38227;BME280;24026;49.446;8.576;2023-04-06T12:10:11;100674.34;;;18.12;26.19
38227;BME280;24026;49.446;8.576;2023-04-06T12:12:32;100673.56;;;18.11;26.12
38227;BME280;24026;49.446;8.576;2023-04-06T12:14:52;100675.19;;;18.07;26.32
38227;BME280;24026;49.446;8.576;2023-04-06T12:17:13;100682.94;;;18.14;26.08
38227;BME280;24026;49.446;8.576;2023-04-06T12:19:33;100673.50;;;18.17;26.09
38227;BME280;24026;49.446;8.576;2023-04-06T12:21:54;100670.81;;;18.17;26.11